Time;durP1;ratioP1;P1;durP2;ratioP2;P2;SDS_P1;SDS_P2;PMS_P1;PMS_P2;Temp;Humidity;BMP_temperature;BMP_pressure;BME280_temperature;BME280_humidity;BME280_pressure;Samples;Min_cycle;Max_cycle;Signal;HPM_P1;HPM_P2
2021/08/21 00:00:00;;;;;;;2.30;2.10;;;22.00;63.60;;;;;;3171036;28;20293;-82
2021/08/21 00:01:31;;;;;;;2.38;2.17;;;22.00;63.50;;;;;;3158983;28;20363;-82
2021/08/21 00:03:04;;;;;;;2.53;2.28;;;22.10;63.40;;;;;;3166150;28;20497;-83
2021/08/21 00:04:37;;;;;;;4.63;2.08;;;22.10;62.90;;;;;;3171893;28;20048;-83
2021/08/21 00:06:09;;;;;;;2.53;1.85;;;22.00;62.70;;;;;;3170841;28;20103;-84
2021/08/21 00:07:40;;;;;;;2.55;1.77;;;22.00;62.70;;;;;;3171587;28;20047;-83
2021/08/21 00:09:11;;;;;;;6.75;1.98;;;21.90;62.60;;;;;;3164073;28;20052;-83
2021/08/21 00:10:43;;;;;;;2.92;2.10;;;22.00;62.70;;;;;;3169505;27;20118;-83
2021/08/21 00:12:16;;;;;;;5.55;2.00;;;22.00;62.20;;;;;;3172767;27;20051;-82
2021/08/21 00:13:48;;;;;;;2.80;1.80;;;22.00;62.00;;;;;;3179326;27;20123;-83
2021/08/21 00:15:20;;;;;;;3.05;1.80;;;22.00;61.90;;;;;;3165444;28;20073;-83
2021/08/21 00:16:52;;;;;;;2.65;1.92;;;22.00;61.90;;;;;;3159382;28;20052;-84
2021/08/21 00:18:23;;;;;;;1.90;1.70;;;21.90;61.60;;;;;;3176922;27;20043;-84
2021/08/21 00:19:55;;;;;;;3.08;1.80;;;21.90;61.70;;;;;;3171977;27;20054;-83
2021/08/21 00:21:27;;;;;;;3.58;1.92;;;21.90;61.80;;;;;;3176987;27;20046;-82
2021/08/21 00:22:59;;;;;;;2.37;1.60;;;22.00;61.80;;;;;;3184574;27;20058;-82
2021/08/21 00:24:30;;;;;;;6.90;1.95;;;21.90;61.70;;;;;;3184608;27;20046;-83
2021/08/21 00:26:02;;;;;;;2.97;2.08;;;21.90;61.70;;;;;;3183648;27;20047;-83
2021/08/21 00:27:35;;;;;;;4.95;1.67;;;21.90;61.50;;;;;;3179188;27;20491;-83
2021/08/21 00:29:07;;;;;;;4.45;1.77;;;21.90;61.70;;;;;;3171430;28;20054;-81
2021/08/21 00:30:39;;;;;;;4.47;1.90;;;21.90;61.70;;;;;;3170133;28;20206;-83
2021/08/21 00:32:09;;;;;;;2.95;1.83;;;21.90;61.50;;;;;;3172776;27;20498;-83
2021/08/21 00:33:41;;;;;;;2.30;1.70;;;21.90;61.60;;;;;;3182087;27;20361;-80
2021/08/21 00:35:13;;;;;;;2.65;2.00;;;21.90;61.80;;;;;;3183563;27;20066;-83
2021/08/21 00:36:45;;;;;;;5.60;1.63;;;21.90;61.90;;;;;;3181360;27;20054;-82
2021/08/21 00:38:16;;;;;;;3.67;1.60;;;21.90;61.40;;;;;;3170948;28;20071;-83
2021/08/21 00:39:48;;;;;;;2.10;1.70;;;21.90;61.40;;;;;;3171806;28;20058;-83
2021/08/21 00:41:20;;;;;;;5.75;1.83;;;21.80;61.60;;;;;;3170978;27;20048;-83
2021/08/21 00:42:53;;;;;;;1.90;1.70;;;21.80;61.60;;;;;;3170307;28;20406;-80
2021/08/21 00:44:25;;;;;;;2.28;1.70;;;21.80;61.60;;;;;;3163646;28;20047;-84
2021/08/21 00:45:57;;;;;;;3.20;1.73;;;21.80;61.60;;;;;;3157523;28;20052;-84
2021/08/21 00:47:28;;;;;;;1.67;1.50;;;21.80;61.60;;;;;;3158397;28;20048;-83
2021/08/21 00:49:00;;;;;;;3.90;1.80;;;21.80;61.60;;;;;;3161521;28;20040;-82
2021/08/21 00:50:32;;;;;;;3.00;1.77;;;21.80;61.60;;;;;;3170021;28;20056;-82
2021/08/21 00:52:03;;;;;;;3.35;1.98;;;21.70;61.60;;;;;;3171432;28;20418;-83
2021/08/21 00:53:35;;;;;;;2.35;1.73;;;21.70;61.60;;;;;;3170324;28;20036;-83
2021/08/21 00:55:08;;;;;;;5.30;1.88;;;21.70;61.60;;;;;;3170683;28;20047;-84
2021/08/21 00:56:40;;;;;;;;;;;21.70;61.60;;;;;;3171661;28;20048;-84
2021/08/21 00:58:13;;;;;;;1.58;1.48;;;21.70;61.50;;;;;;3170759;28;20282;-79
2021/08/21 00:59:46;;;;;;;3.85;1.60;;;21.70;61.50;;;;;;3170941;28;20059;-84
2021/08/21 01:01:18;;;;;;;2.53;1.40;;;21.70;61.30;;;;;;3163394;28;20047;-84
2021/08/21 01:02:49;;;;;;;2.78;1.60;;;21.70;61.50;;;;;;3171452;28;20043;-84
2021/08/21 01:04:21;;;;;;;2.47;1.65;;;21.70;61.30;;;;;;3165293;28;20059;-84
2021/08/21 01:05:53;;;;;;;5.22;1.70;;;21.70;61.30;;;;;;3158143;28;20048;-82
2021/08/21 01:07:25;;;;;;;3.20;1.90;;;21.60;61.30;;;;;;3158923;28;20052;-81
2021/08/21 01:08:57;;;;;;;1.98;1.60;;;21.60;61.20;;;;;;3158476;28;20398;-83
2021/08/21 01:10:29;;;;;;;3.67;1.80;;;21.60;61.20;;;;;;3157938;28;20048;-82
2021/08/21 01:12:00;;;;;;;1.88;1.60;;;21.60;61.20;;;;;;3158805;28;20048;-83
2021/08/21 01:13:34;;;;;;;3.28;1.60;;;21.60;61.20;;;;;;3158355;28;20044;-82
2021/08/21 01:15:07;;;;;;;2.45;1.70;;;21.60;61.30;;;;;;3157463;28;20048;-83
2021/08/21 01:16:39;;;;;;;2.47;1.83;;;21.60;61.20;;;;;;3158433;28;20048;-83
2021/08/21 01:18:11;;;;;;;3.47;1.88;;;21.60;61.20;;;;;;3158210;28;20048;-82
2021/08/21 01:19:44;;;;;;;2.20;1.80;;;21.60;61.20;;;;;;3167664;28;20048;-84
2021/08/21 01:21:15;;;;;;;;;;;21.60;61.20;;;;;;3170275;27;20043;-83
2021/08/21 01:22:47;;;;;;;1.63;1.50;;;21.60;61.20;;;;;;3170993;28;19919;-83
2021/08/21 01:24:18;;;;;;;1.95;1.75;;;21.60;61.20;;;;;;3165675;28;20044;-84
2021/08/21 01:25:50;;;;;;;1.60;1.45;;;21.60;61.20;;;;;;3158020;28;20059;-83
2021/08/21 01:27:24;;;;;;;1.90;1.80;;;21.60;61.20;;;;;;3158427;28;20056;-82
2021/08/21 01:28:55;;;;;;;4.82;1.95;;;21.50;61.10;;;;;;3158047;28;20048;-84
2021/08/21 01:30:27;;;;;;;4.63;1.70;;;21.60;61.10;;;;;;3157760;28;20040;-83
2021/08/21 01:31:59;;;;;;;2.95;1.65;;;21.60;61.10;;;;;;3161231;28;20059;-83
2021/08/21 01:33:32;;;;;;;1.85;1.50;;;21.50;60.90;;;;;;3161117;28;20048;-83
2021/08/21 01:35:04;;;;;;;2.15;1.52;;;21.50;61.00;;;;;;3160342;28;20040;-83
2021/08/21 01:36:40;;;;;;;2.13;1.70;;;21.60;61.00;;;;;;3161080;28;20051;-84
2021/08/21 01:38:11;;;;;;;1.98;1.77;;;21.60;60.90;;;;;;3160609;28;20422;-83
2021/08/21 01:39:43;;;;;;;2.75;1.70;;;21.60;60.90;;;;;;3161005;28;20074;-83
2021/08/21 01:41:15;;;;;;;1.90;1.70;;;21.60;60.80;;;;;;3168227;28;20051;-83
2021/08/21 01:42:48;;;;;;;1.75;1.63;;;21.50;60.80;;;;;;3173615;28;20047;-81
2021/08/21 01:44:19;;;;;;;1.88;1.48;;;21.50;60.70;;;;;;3173534;27;20058;-83
2021/08/21 01:45:50;;;;;;;1.65;1.52;;;21.60;60.70;;;;;;3169728;27;20058;-84
2021/08/21 01:47:22;;;;;;;2.22;1.60;;;21.50;60.60;;;;;;3173736;28;20051;-83
2021/08/21 01:48:54;;;;;;;2.75;1.90;;;21.50;60.60;;;;;;3172857;28;20055;-83
2021/08/21 01:50:25;;;;;;;2.15;1.50;;;21.50;60.60;;;;;;3172782;27;20050;-83
2021/08/21 01:52:01;;;;;;;3.72;1.70;;;21.50;60.70;;;;;;3170461;28;20051;-82
2021/08/21 01:53:32;;;;;;;2.15;1.88;;;21.50;60.50;;;;;;3173471;28;20058;-83
2021/08/21 01:55:05;;;;;;;4.20;1.70;;;21.50;60.60;;;;;;3172966;27;20518;-83
2021/08/21 01:56:44;;;;;;;1.70;1.50;;;21.50;60.60;;;;;;3172901;28;20322;-83
2021/08/21 01:58:20;;;;;;;2.42;1.75;;;21.50;60.60;;;;;;3172503;28;20044;-83
2021/08/21 01:59:52;;;;;;;2.25;1.63;;;21.50;60.50;;;;;;3172994;27;20139;-83
2021/08/21 02:01:24;;;;;;;2.00;1.55;;;21.50;61.10;;;;;;3160847;27;20066;-83
2021/08/21 02:02:56;;;;;;;2.35;1.80;;;21.40;60.40;;;;;;3161108;28;20052;-81
2021/08/21 02:04:28;;;;;;;3.35;1.52;;;21.40;60.30;;;;;;3160680;28;20056;-81
2021/08/21 02:05:59;;;;;;;2.88;1.70;;;21.40;60.40;;;;;;3160031;28;20418;-80
2021/08/21 02:07:31;;;;;;;2.33;1.60;;;21.40;60.20;;;;;;3160574;28;20051;-83
2021/08/21 02:09:03;;;;;;;2.63;1.90;;;21.50;60.40;;;;;;3160678;28;20052;-83
2021/08/21 02:10:35;;;;;;;1.95;1.70;;;21.40;60.30;;;;;;3159991;28;20106;-83
2021/08/21 02:12:07;;;;;;;1.50;1.40;;;21.40;60.20;;;;;;3160942;28;20055;-83
2021/08/21 02:13:40;;;;;;;1.60;1.50;;;21.40;60.20;;;;;;3160106;28;20048;-82
2021/08/21 02:15:13;;;;;;;2.88;1.58;;;21.40;60.20;;;;;;3159798;28;20378;-84
2021/08/21 02:16:45;;;;;;;2.55;1.60;;;21.40;60.30;;;;;;3169983;28;20050;-83
2021/08/21 02:18:16;;;;;;;2.60;1.60;;;21.40;60.20;;;;;;3172263;28;20063;-82
2021/08/21 02:19:47;;;;;;;2.72;1.73;;;21.40;60.20;;;;;;3173107;28;20083;-82
2021/08/21 02:21:20;;;;;;;1.60;1.50;;;21.40;60.20;;;;;;3175980;27;20035;-83
2021/08/21 02:22:51;;;;;;;2.58;1.58;;;21.40;60.20;;;;;;3179097;27;20640;-83
2021/08/21 02:24:25;;;;;;;1.75;1.58;;;21.40;60.10;;;;;;3160108;28;20117;-83
2021/08/21 02:25:57;;;;;;;2.60;1.65;;;21.40;60.10;;;;;;3162290;28;20040;-81
2021/08/21 02:27:36;;;;;;;2.00;1.67;;;21.40;60.10;;;;;;3164772;28;20341;-83
2021/08/21 02:29:09;;;;;;;1.92;1.40;;;21.40;60.10;;;;;;3160112;28;20076;-83
2021/08/21 02:30:41;;;;;;;1.92;1.60;;;21.40;60.00;;;;;;3159212;27;20426;-83
2021/08/21 02:32:13;;;;;;;2.42;1.45;;;21.30;59.90;;;;;;3160889;28;20119;-84
2021/08/21 02:33:43;;;;;;;1.55;1.45;;;21.30;60.00;;;;;;3160371;28;20416;-83
2021/08/21 02:35:15;;;;;;;1.83;1.73;;;21.30;59.80;;;;;;3159510;28;20046;-81
2021/08/21 02:36:47;;;;;;;1.75;1.60;;;21.30;59.90;;;;;;3170166;28;20470;-84
2021/08/21 02:38:19;;;;;;;2.33;1.60;;;21.30;59.90;;;;;;3164409;28;20051;-83
2021/08/21 02:39:49;;;;;;;2.35;1.55;;;21.30;59.90;;;;;;3172981;28;20092;-83
2021/08/21 02:41:21;;;;;;;1.70;1.55;;;21.30;59.90;;;;;;3171360;27;20097;-83
2021/08/21 02:42:53;;;;;;;1.90;1.60;;;21.30;59.90;;;;;;3172816;28;20051;-83
2021/08/21 02:44:26;;;;;;;2.20;1.80;;;21.30;60.00;;;;;;3173438;28;20052;-83
2021/08/21 02:45:58;;;;;;;2.13;1.50;;;21.30;60.10;;;;;;3168238;27;20040;-80
2021/08/21 02:47:30;;;;;;;2.88;1.70;;;21.30;60.20;;;;;;3160137;28;20247;-84
2021/08/21 02:49:02;;;;;;;2.20;1.75;;;21.30;60.10;;;;;;3163831;28;20486;-83
2021/08/21 02:50:33;;;;;;;2.25;1.70;;;21.30;60.00;;;;;;3170431;27;20152;-83
2021/08/21 02:52:05;;;;;;;2.97;1.55;;;21.30;59.90;;;;;;3170924;28;20055;-83
2021/08/21 02:53:37;;;;;;;3.05;1.63;;;21.30;60.10;;;;;;3172910;28;20052;-83
2021/08/21 02:55:10;;;;;;;3.00;1.50;;;21.30;60.00;;;;;;3172588;27;20048;-83
2021/08/21 02:56:42;;;;;;;1.60;1.50;;;21.30;60.00;;;;;;3167660;28;20054;-83
2021/08/21 02:58:13;;;;;;;3.45;1.63;;;21.20;60.60;;;;;;3171161;28;20058;-83
2021/08/21 02:59:46;;;;;;;2.75;1.65;;;21.20;59.90;;;;;;3172784;28;20441;-83
2021/08/21 03:01:18;;;;;;;2.80;1.83;;;21.20;59.90;;;;;;3161167;27;20043;-83
2021/08/21 03:02:50;;;;;;;1.98;1.58;;;21.20;59.80;;;;;;3160142;28;20067;-83
2021/08/21 03:04:21;;;;;;;3.05;1.58;;;21.30;59.90;;;;;;3159542;28;20040;-83
2021/08/21 03:05:53;;;;;;;2.17;1.40;;;21.30;59.90;;;;;;3159398;28;20040;-83
2021/08/21 03:07:25;;;;;;;3.30;1.50;;;21.30;60.40;;;;;;3160193;28;20051;-81
2021/08/21 03:08:56;;;;;;;2.75;1.55;;;21.20;59.80;;;;;;3159510;28;20474;-81
2021/08/21 03:10:28;;;;;;;3.03;1.70;;;21.20;59.80;;;;;;3159731;28;20093;-83
2021/08/21 03:12:00;;;;;;;2.03;1.67;;;21.20;59.80;;;;;;3160076;28;20147;-83
2021/08/21 03:13:32;;;;;;;1.63;1.48;;;21.20;59.90;;;;;;3159921;28;20297;-83
2021/08/21 03:15:06;;;;;;;2.20;1.60;;;21.20;60.00;;;;;;3159299;28;20483;-83
2021/08/21 03:16:38;;;;;;;2.47;1.52;;;21.20;59.90;;;;;;3159573;28;20040;-82
2021/08/21 03:18:09;;;;;;;1.58;1.48;;;21.20;59.80;;;;;;3170842;28;20047;-80
2021/08/21 03:19:42;;;;;;;4.50;1.70;;;21.20;59.80;;;;;;3172444;28;20489;-83
2021/08/21 03:21:15;;;;;;;2.05;1.70;;;21.20;59.80;;;;;;3171422;27;20035;-82
2021/08/21 03:22:46;;;;;;;1.65;1.50;;;21.20;59.80;;;;;;3171725;28;20047;-83
2021/08/21 03:24:17;;;;;;;4.00;1.45;;;21.20;59.80;;;;;;3166792;28;20044;-83
2021/08/21 03:25:49;;;;;;;2.80;1.73;;;21.20;59.80;;;;;;3159273;27;20032;-83
2021/08/21 03:27:20;;;;;;;2.88;1.70;;;21.20;59.70;;;;;;3159452;28;20643;-83
2021/08/21 03:28:52;;;;;;;1.50;1.40;;;21.10;59.60;;;;;;3159014;28;20048;-81
2021/08/21 03:30:25;;;;;;;3.05;1.45;;;21.10;59.60;;;;;;3158527;28;20293;-83
2021/08/21 03:31:57;;;;;;;2.33;1.42;;;21.20;59.70;;;;;;3159434;28;20151;-83
2021/08/21 03:33:28;;;;;;;1.90;1.33;;;21.20;59.80;;;;;;3159605;28;20048;-82
2021/08/21 03:35:00;;;;;;;1.90;1.70;;;21.20;59.60;;;;;;3159204;28;20044;-80
2021/08/21 03:36:32;;;;;;;2.95;1.67;;;21.20;59.70;;;;;;3160095;28;20402;-82
2021/08/21 03:38:07;;;;;;;1.60;1.50;;;21.10;59.70;;;;;;3170530;28;20057;-80
2021/08/21 03:39:38;;;;;;;1.80;1.65;;;21.10;59.60;;;;;;3172125;28;20502;-81
2021/08/21 03:41:10;;;;;;;2.42;1.80;;;21.20;59.60;;;;;;3172153;27;20043;-83
2021/08/21 03:42:42;;;;;;;1.67;1.50;;;21.10;59.60;;;;;;3170399;28;20062;-83
2021/08/21 03:44:14;;;;;;;1.60;1.50;;;21.10;59.60;;;;;;3172231;28;20044;-83
2021/08/21 03:45:47;;;;;;;2.15;1.60;;;21.10;59.70;;;;;;3171040;27;20056;-83
2021/08/21 03:47:19;;;;;;;1.92;1.58;;;21.10;59.70;;;;;;3172123;28;20047;-82
2021/08/21 03:48:50;;;;;;;1.55;1.45;;;21.10;59.70;;;;;;3169743;28;20051;-83
2021/08/21 03:50:22;;;;;;;3.08;1.70;;;21.10;59.70;;;;;;3171489;27;20058;-83
2021/08/21 03:51:54;;;;;;;2.08;1.63;;;21.10;59.70;;;;;;3167428;28;20059;-83
2021/08/21 03:53:25;;;;;;;1.60;1.50;;;21.10;59.70;;;;;;3158936;28;20067;-82
2021/08/21 03:54:58;;;;;;;2.45;1.50;;;21.10;59.60;;;;;;3158931;27;20048;-79
2021/08/21 03:56:30;;;;;;;3.17;1.60;;;21.20;59.30;;;;;;3169335;28;20525;-82
2021/08/21 03:58:02;;;;;;;2.28;1.70;;;21.20;59.10;;;;;;3171910;28;20048;-83
2021/08/21 03:59:33;;;;;;;1.52;1.42;;;21.30;58.70;;;;;;3171885;28;20066;-82
2021/08/21 04:01:06;;;;;;;2.03;1.52;;;21.50;58.40;;;;;;3168103;28;20131;-83
2021/08/21 04:02:38;;;;;;;3.70;1.70;;;21.60;58.10;;;;;;3167328;28;20051;-82
2021/08/21 04:04:10;;;;;;;1.58;1.48;;;21.70;57.70;;;;;;3172103;28;20486;-81
2021/08/21 04:05:42;;;;;;;1.85;1.50;;;21.80;57.40;;;;;;3170815;28;20058;-82
2021/08/21 04:07:16;;;;;;;2.83;1.50;;;21.90;57.10;;;;;;3171864;28;20509;-83
2021/08/21 04:08:48;;;;;;;2.45;1.63;;;22.00;56.90;;;;;;3166282;28;20139;-80
2021/08/21 04:10:20;;;;;;;1.63;1.45;;;22.00;56.60;;;;;;3159032;28;20456;-83
2021/08/21 04:11:52;;;;;;;1.70;1.33;;;22.10;56.50;;;;;;3159401;28;20054;-82
2021/08/21 04:13:23;;;;;;;1.77;1.50;;;22.10;56.30;;;;;;3159138;28;20048;-82
2021/08/21 04:14:55;;;;;;;2.00;1.58;;;22.20;56.20;;;;;;3158998;28;20293;-83
2021/08/21 04:16:28;;;;;;;3.95;1.80;;;22.30;55.90;;;;;;3158777;28;20499;-82
2021/08/21 04:18:00;;;;;;;1.85;1.27;;;22.30;55.60;;;;;;3158989;28;20052;-83
2021/08/21 04:19:32;;;;;;;1.70;1.58;;;22.40;55.60;;;;;;3165412;28;20478;-83
2021/08/21 04:21:03;;;;;;;2.90;1.50;;;22.50;55.40;;;;;;3171410;28;20077;-83
2021/08/21 04:22:35;;;;;;;2.40;1.40;;;22.50;55.30;;;;;;3169236;28;20048;-83
2021/08/21 04:24:07;;;;;;;2.08;1.30;;;22.60;55.20;;;;;;3171808;28;20047;-80
2021/08/21 04:25:38;;;;;;;4.68;1.70;;;22.60;55.10;;;;;;3171242;28;20048;-83
2021/08/21 04:27:10;;;;;;;3.22;1.40;;;22.70;55.00;;;;;;3165245;28;20047;-83
2021/08/21 04:28:42;;;;;;;2.90;1.67;;;22.70;54.80;;;;;;3158676;28;20510;-83
2021/08/21 04:30:14;;;;;;;3.38;1.73;;;22.70;54.80;;;;;;3157827;28;20410;-82
2021/08/21 04:31:47;;;;;;;2.72;1.50;;;22.80;54.70;;;;;;3161126;28;20433;-82
2021/08/21 04:33:19;;;;;;;2.10;1.45;;;22.90;54.70;;;;;;3163611;28;20118;-83
2021/08/21 04:34:52;;;;;;;2.03;1.75;;;22.90;54.50;;;;;;3171521;28;20100;-83
2021/08/21 04:36:23;;;;;;;3.63;1.80;;;23.00;54.50;;;;;;3171491;28;20382;-83
2021/08/21 04:37:55;;;;;;;3.70;1.50;;;23.00;54.60;;;;;;3171059;28;20047;-84
2021/08/21 04:39:27;;;;;;;1.60;1.33;;;23.00;54.50;;;;;;3171764;28;20105;-82
2021/08/21 04:40:58;;;;;;;2.95;1.38;;;23.10;54.30;;;;;;3171229;27;20399;-83
2021/08/21 04:42:30;;;;;;;2.50;1.70;;;23.10;54.30;;;;;;3169887;28;20457;-83
2021/08/21 04:44:02;;;;;;;1.60;1.30;;;23.10;54.30;;;;;;3171606;28;20054;-81
2021/08/21 04:45:34;;;;;;;1.40;1.30;;;23.10;54.20;;;;;;3170724;27;20058;-83
2021/08/21 04:47:07;;;;;;;2.17;1.55;;;23.10;54.30;;;;;;3165657;28;20122;-83
2021/08/21 04:48:39;;;;;;;1.98;1.30;;;23.10;54.30;;;;;;3159155;28;20052;-82
2021/08/21 04:50:11;;;;;;;1.50;1.40;;;23.10;54.30;;;;;;3182525;27;20073;-83
2021/08/21 04:51:43;;;;;;;2.08;1.50;;;23.10;54.40;;;;;;3181491;28;20549;-81
2021/08/21 04:53:15;;;;;;;1.88;1.60;;;23.10;54.40;;;;;;3171478;28;20039;-82
2021/08/21 04:54:46;;;;;;;2.72;1.50;;;23.10;54.40;;;;;;3171615;28;20088;-80
2021/08/21 04:56:18;;;;;;;2.22;1.40;;;23.10;54.50;;;;;;3174838;28;20065;-83
2021/08/21 04:57:50;;;;;;;2.20;1.50;;;23.00;54.50;;;;;;3160192;28;20055;-82
2021/08/21 04:59:22;;;;;;;2.25;1.40;;;23.00;54.70;;;;;;3158713;28;20134;-83
2021/08/21 05:00:53;;;;;;;1.85;1.40;;;22.90;54.80;;;;;;3164635;28;20043;-81
2021/08/21 05:02:27;;;;;;;2.00;1.42;;;22.90;54.90;;;;;;3171739;28;20093;-81
2021/08/21 05:03:58;;;;;;;2.13;1.33;;;22.90;55.00;;;;;;3163800;28;20427;-83
2021/08/21 05:05:31;;;;;;;1.70;1.50;;;22.80;55.20;;;;;;3160248;28;20051;-83
2021/08/21 05:07:03;;;;;;;3.50;1.65;;;22.70;55.30;;;;;;3164829;28;20275;-83
2021/08/21 05:08:35;;;;;;;3.10;1.30;;;22.70;55.40;;;;;;3173724;28;20448;-83
2021/08/21 05:10:07;;;;;;;1.60;1.25;;;22.70;55.60;;;;;;3174254;27;20058;-84
2021/08/21 05:11:38;;;;;;;2.10;1.42;;;22.60;55.70;;;;;;3173650;28;20054;-84
2021/08/21 05:13:10;;;;;;;1.75;1.50;;;22.60;55.90;;;;;;3172794;28;20050;-83
2021/08/21 05:14:42;;;;;;;1.63;1.38;;;22.60;55.90;;;;;;3173667;28;20127;-84
2021/08/21 05:16:14;;;;;;;1.85;1.50;;;22.60;56.10;;;;;;3173115;27;20059;-82
2021/08/21 05:17:49;;;;;;;1.67;1.50;;;22.50;56.20;;;;;;3172950;28;20349;-81
2021/08/21 05:19:28;;;;;;;3.25;1.55;;;22.40;56.30;;;;;;3173408;28;20047;-83
2021/08/21 05:21:06;;;;;;;1.77;1.35;;;22.40;56.40;;;;;;3173137;27;20093;-82
2021/08/21 05:22:47;;;;;;;2.38;1.42;;;22.40;56.50;;;;;;3173224;28;20295;-84
2021/08/21 05:24:18;;;;;;;3.47;1.50;;;22.40;56.50;;;;;;3174173;28;20065;-83
2021/08/21 05:25:50;;;;;;;2.90;1.40;;;22.40;56.50;;;;;;3173103;28;20048;-82
2021/08/21 05:27:24;;;;;;;2.42;1.25;;;22.30;56.70;;;;;;3174528;28;20143;-84
2021/08/21 05:28:55;;;;;;;2.30;1.60;;;22.40;56.80;;;;;;3170050;28;20055;-83
2021/08/21 05:30:28;;;;;;;1.65;1.42;;;22.30;56.80;;;;;;3160090;28;20047;-82
2021/08/21 05:32:00;;;;;;;3.15;1.50;;;22.40;56.70;;;;;;3164523;28;20044;-84
2021/08/21 05:33:33;;;;;;;2.97;1.50;;;22.40;56.70;;;;;;3174109;28;20092;-83
2021/08/21 05:35:06;;;;;;;1.70;1.23;;;22.50;56.50;;;;;;3173488;28;20634;-83
2021/08/21 05:36:38;;;;;;;1.73;1.50;;;22.50;56.50;;;;;;3173015;28;20055;-83
2021/08/21 05:38:10;;;;;;;1.77;1.40;;;22.60;56.30;;;;;;3173797;28;20638;-83
2021/08/21 05:39:42;;;;;;;2.45;1.40;;;22.60;56.20;;;;;;3174175;28;20052;-84
2021/08/21 05:41:14;;;;;;;1.70;1.35;;;22.70;56.10;;;;;;3173507;28;20574;-83
2021/08/21 05:42:46;;;;;;;1.92;1.35;;;22.70;56.00;;;;;;3171777;28;20105;-83
2021/08/21 05:44:18;;;;;;;4.57;1.60;;;22.70;55.90;;;;;;3173912;28;20052;-83
2021/08/21 05:45:49;;;;;;;1.75;1.52;;;22.70;55.80;;;;;;3172846;28;20068;-82
2021/08/21 05:47:21;;;;;;;1.80;1.40;;;22.70;55.80;;;;;;3166732;28;20050;-81
2021/08/21 05:48:54;;;;;;;2.92;1.60;;;22.80;55.90;;;;;;3160961;28;20047;-83
2021/08/21 05:50:26;;;;;;;1.70;1.60;;;22.80;55.80;;;;;;3165640;28;20047;-83
2021/08/21 05:51:58;;;;;;;3.45;1.90;;;22.80;55.70;;;;;;3174187;28;20056;-82
2021/08/21 05:53:29;;;;;;;2.85;1.50;;;22.80;55.80;;;;;;3168079;28;20048;-80
2021/08/21 05:55:00;;;;;;;10.48;1.70;;;22.80;56.00;;;;;;3168603;28;20093;-84
2021/08/21 05:56:32;;;;;;;8.30;1.60;;;22.70;57.20;;;;;;3173954;28;20119;-82
2021/08/21 05:58:04;;;;;;;8.45;1.58;;;22.70;57.40;;;;;;3173455;28;20062;-81
2021/08/21 05:59:36;;;;;;;3.95;1.77;;;22.70;57.60;;;;;;3173035;28;20399;-81
2021/08/21 06:01:07;;;;;;;7.65;1.80;;;22.70;57.60;;;;;;3163093;28;20051;-82
2021/08/21 06:02:39;;;;;;;7.88;1.70;;;22.70;57.80;;;;;;3160773;28;20059;-82
2021/08/21 06:04:12;;;;;;;8.63;1.38;;;22.70;58.40;;;;;;3160700;28;20052;-83
2021/08/21 06:05:44;;;;;;;3.30;1.40;;;22.60;58.50;;;;;;3159971;28;20059;-84
2021/08/21 06:07:15;;;;;;;5.20;1.55;;;22.70;58.10;;;;;;3160792;28;20051;-83
2021/08/21 06:08:47;;;;;;;4.60;1.40;;;22.70;58.30;;;;;;3160375;28;20506;-83
2021/08/21 06:10:19;;;;;;;6.82;1.40;;;22.60;58.20;;;;;;3159902;28;20048;-84
2021/08/21 06:11:51;;;;;;;6.75;2.00;;;22.70;58.20;;;;;;3160714;28;20418;-82
2021/08/21 06:13:22;;;;;;;10.43;1.80;;;22.70;58.20;;;;;;3160577;28;20064;-82
2021/08/21 06:14:54;;;;;;;13.48;1.58;;;22.70;58.50;;;;;;3160420;28;20055;-82
2021/08/21 06:16:26;;;;;;;6.88;1.42;;;22.70;58.70;;;;;;3158719;28;20048;-83
2021/08/21 06:17:57;;;;;;;8.98;1.45;;;22.70;58.40;;;;;;3160243;28;20590;-84
2021/08/21 06:19:30;;;;;;;11.18;1.65;;;22.80;58.50;;;;;;3167833;28;20035;-83
2021/08/21 06:21:02;;;;;;;8.73;1.50;;;22.80;58.50;;;;;;3172450;28;20047;-82
2021/08/21 06:22:34;;;;;;;8.43;1.60;;;22.90;58.60;;;;;;3173049;28;20056;-82
2021/08/21 06:24:06;;;;;;;9.75;1.95;;;22.90;58.90;;;;;;3173209;28;20417;-83
2021/08/21 06:25:38;;;;;;;7.13;1.50;;;22.90;59.00;;;;;;3173303;28;20486;-84
2021/08/21 06:27:09;;;;;;;7.57;1.45;;;23.00;59.20;;;;;;3172846;28;20089;-83
2021/08/21 06:28:41;;;;;;;10.35;1.67;;;23.00;59.20;;;;;;3172336;28;20044;-80
2021/08/21 06:30:13;;;;;;;6.88;1.70;;;23.00;59.20;;;;;;3171736;28;20097;-83
2021/08/21 06:31:44;;;;;;;4.18;1.45;;;23.00;59.10;;;;;;3173182;28;20486;-83
2021/08/21 06:33:16;;;;;;;5.00;1.40;;;23.10;59.10;;;;;;3173153;28;20406;-83
2021/08/21 06:34:49;;;;;;;16.60;1.60;;;23.10;58.90;;;;;;3172648;28;20047;-83
2021/08/21 06:36:21;;;;;;;12.27;1.63;;;23.00;59.60;;;;;;3172497;28;20138;-83
2021/08/21 06:37:53;;;;;;;11.85;1.58;;;23.00;59.70;;;;;;3172680;28;20101;-83
2021/08/21 06:39:24;;;;;;;13.85;1.83;;;23.00;59.90;;;;;;3172506;28;20048;-83
2021/08/21 06:40:56;;;;;;;13.05;1.75;;;23.00;60.10;;;;;;3172477;27;20047;-83
2021/08/21 06:42:28;;;;;;;6.95;1.60;;;22.90;60.40;;;;;;3172967;28;20545;-83
2021/08/21 06:43:59;;;;;;;8.77;1.50;;;22.90;60.50;;;;;;3172564;28;20117;-83
2021/08/21 06:45:31;;;;;;;9.93;1.52;;;22.80;60.50;;;;;;3171474;27;20430;-84
2021/08/21 06:47:03;;;;;;;15.77;1.45;;;22.80;60.40;;;;;;3172897;28;20058;-83
2021/08/21 06:48:35;;;;;;;15.35;1.50;;;22.80;61.00;;;;;;3172162;28;20414;-83
2021/08/21 06:50:09;;;;;;;14.55;1.80;;;22.80;61.20;;;;;;3170468;27;20047;-83
2021/08/21 06:51:41;;;;;;;7.97;1.65;;;22.80;61.00;;;;;;3172594;28;20054;-83
2021/08/21 06:53:14;;;;;;;8.65;1.42;;;22.80;61.40;;;;;;3172681;28;20481;-83
2021/08/21 06:54:46;;;;;;;9.82;1.48;;;22.80;61.20;;;;;;3172927;28;20502;-84
2021/08/21 06:56:18;;;;;;;18.42;1.77;;;22.80;61.00;;;;;;3172284;28;20040;-84
2021/08/21 06:57:49;;;;;;;4.03;1.42;;;22.80;60.90;;;;;;3172465;28;20043;-83
2021/08/21 06:59:21;;;;;;;8.48;1.60;;;22.90;60.70;;;;;;3172107;28;20490;-81
2021/08/21 07:00:53;;;;;;;7.57;1.40;;;22.90;60.80;;;;;;3164689;28;20411;-80
2021/08/21 07:02:24;;;;;;;3.38;1.60;;;22.90;61.10;;;;;;3160165;28;20049;-84
2021/08/21 07:03:56;;;;;;;8.20;1.50;;;22.90;61.00;;;;;;3159971;28;20051;-83
2021/08/21 07:05:29;;;;;;;5.00;1.30;;;23.00;61.00;;;;;;3159163;28;20071;-83
2021/08/21 07:07:02;;;;;;;8.48;1.50;;;23.00;61.00;;;;;;3160347;28;20048;-81
2021/08/21 07:08:33;;;;;;;12.85;1.70;;;23.00;61.00;;;;;;3159464;28;20058;-83
2021/08/21 07:10:06;;;;;;;4.18;1.50;;;23.00;60.90;;;;;;3159738;28;20410;-84
2021/08/21 07:11:38;;;;;;;6.75;1.40;;;23.10;61.00;;;;;;3159987;28;20422;-82
2021/08/21 07:13:09;;;;;;;4.35;1.50;;;23.00;61.00;;;;;;3160309;28;20414;-83
2021/08/21 07:14:41;;;;;;;7.65;1.70;;;23.00;61.10;;;;;;3159814;28;20075;-84
2021/08/21 07:16:13;;;;;;;7.75;1.50;;;23.10;61.10;;;;;;3158594;28;20043;-83
2021/08/21 07:17:44;;;;;;;7.38;1.40;;;23.00;61.00;;;;;;3160738;28;20395;-83
2021/08/21 07:19:16;;;;;;;4.53;1.55;;;23.10;61.00;;;;;;3167367;27;20043;-83
2021/08/21 07:20:49;;;;;;;4.53;1.23;;;23.10;61.20;;;;;;3184502;27;20054;-84
2021/08/21 07:22:21;;;;;;;8.30;1.50;;;23.20;61.10;;;;;;3185104;27;20266;-84
2021/08/21 07:23:52;;;;;;;7.03;1.40;;;23.20;61.20;;;;;;3185878;27;20138;-83
2021/08/21 07:25:24;;;;;;;6.25;1.30;;;23.20;61.20;;;;;;3185227;27;20104;-81
2021/08/21 07:26:56;;;;;;;4.78;1.35;;;23.20;61.40;;;;;;3185071;27;20047;-84
2021/08/21 07:28:27;;;;;;;5.95;1.48;;;23.20;61.10;;;;;;3183683;27;20047;-83
2021/08/21 07:29:59;;;;;;;3.22;1.23;;;23.20;61.30;;;;;;3184906;27;20421;-84
2021/08/21 07:31:31;;;;;;;4.10;1.25;;;23.20;61.50;;;;;;3184087;27;20047;-83
2021/08/21 07:33:02;;;;;;;4.40;1.48;;;23.20;61.80;;;;;;3184715;27;20047;-80
2021/08/21 07:34:36;;;;;;;3.70;1.30;;;23.20;61.70;;;;;;3185585;27;20096;-83
2021/08/21 07:36:09;;;;;;;2.15;1.35;;;23.20;61.50;;;;;;3184572;27;20058;-83
2021/08/21 07:37:40;;;;;;;1.90;1.20;;;23.20;61.70;;;;;;3184643;27;20058;-84
2021/08/21 07:39:12;;;;;;;5.18;1.30;;;23.30;61.60;;;;;;3184553;27;20053;-84
2021/08/21 07:40:44;;;;;;;11.73;1.33;;;23.30;61.60;;;;;;3185536;27;20104;-84
2021/08/21 07:42:16;;;;;;;8.65;1.50;;;23.30;62.20;;;;;;3185262;27;20058;-83
2021/08/21 07:43:47;;;;;;;3.72;1.30;;;23.30;61.50;;;;;;3184603;27;20047;-83
2021/08/21 07:45:19;;;;;;;2.35;1.35;;;23.30;61.00;;;;;;3183989;27;20054;-83
2021/08/21 07:46:51;;;;;;;4.75;1.40;;;23.30;60.50;;;;;;3185129;27;20043;-84
2021/08/21 07:48:23;;;;;;;3.00;1.23;;;23.20;60.30;;;;;;3184389;27;20046;-84
2021/08/21 07:49:54;;;;;;;3.15;1.25;;;23.20;60.00;;;;;;3172351;27;20052;-84
2021/08/21 07:51:27;;;;;;;4.15;1.27;;;23.20;60.10;;;;;;3172106;28;20050;-84
2021/08/21 07:52:59;;;;;;;1.30;1.20;;;23.10;59.80;;;;;;3172285;28;20497;-83
2021/08/21 07:54:31;;;;;;;2.15;1.40;;;23.10;59.80;;;;;;3171973;28;20396;-83
2021/08/21 07:56:06;;;;;;;7.60;1.23;;;23.10;59.70;;;;;;3171376;27;20052;-83
2021/08/21 07:57:37;;;;;;;3.03;1.30;;;23.00;59.60;;;;;;3171901;28;20089;-84
2021/08/21 07:59:09;;;;;;;5.28;1.40;;;23.00;59.70;;;;;;3171468;28;20048;-83